createdAt,value
2022-11-20T00:00:17.243Z,55.02
2022-11-20T00:30:40.301Z,54.94
2022-11-20T01:00:44.129Z,56.85
2022-11-20T01:30:47.232Z,59.67
2022-11-20T02:00:50.525Z,57.55
2022-11-20T02:30:53.523Z,56.46
2022-11-20T03:00:56.611Z,56.06
2022-11-20T03:30:59.619Z,56.42
2022-11-20T04:01:03.006Z,59.55
2022-11-20T04:31:07.152Z,59.95
2022-11-20T05:01:10.049Z,56.86
2022-11-20T05:31:14.071Z,56.30
2022-11-20T06:01:16.879Z,55.25
2022-11-20T06:31:20.603Z,54.29
2022-11-20T07:01:23.666Z,56.14
2022-11-20T07:31:27.494Z,52.78
2022-11-20T08:01:30.839Z,54.73
2022-11-20T08:31:34.603Z,55.91
2022-11-20T09:01:57.933Z,51.86
2022-11-20T09:32:00.939Z,53.98
2022-11-20T10:02:03.865Z,51.82
2022-11-20T10:32:07.668Z,53.62
2022-11-20T11:02:10.479Z,51.99
2022-11-20T11:32:14.684Z,52.83
2022-11-20T12:02:17.947Z,56.02
2022-11-20T12:32:20.975Z,53.91
2022-11-20T13:02:24.515Z,53.08
2022-11-20T13:32:28.538Z,56.02
2022-11-20T14:02:32.100Z,54.96
2022-11-20T14:32:35.223Z,58.81
2022-11-20T15:02:38.396Z,61.32
2022-11-20T15:32:41.390Z,56.36
2022-11-20T16:02:45.288Z,59.79
2022-11-20T16:32:49.429Z,56.76
2022-11-20T17:02:52.841Z,56.64
2022-11-20T17:32:56.431Z,59.00
2022-11-20T18:02:59.422Z,55.49
2022-11-20T18:33:03.069Z,57.63
2022-11-20T19:03:06.091Z,60.30
2022-11-20T19:33:10.299Z,57.62
2022-11-20T20:03:13.319Z,53.53
2022-11-20T20:33:19.630Z,52.22
2022-11-20T21:03:23.833Z,55.46
2022-11-20T21:33:27.012Z,54.56
2022-11-20T22:03:30.280Z,53.32
2022-11-20T22:33:33.425Z,51.88
2022-11-20T23:03:37.140Z,50.36
2022-11-20T23:33:40.597Z,48.83
